Time;durP1;ratioP1;P1;durP2;ratioP2;P2;SDS_P1;SDS_P2;PMS_P1;PMS_P2;Temp;Humidity;BMP_temperature;BMP_pressure;BME280_temperature;BME280_humidity;BME280_pressure;Samples;Min_cycle;Max_cycle;Signal;HPM_P1;HPM_P2
2023/08/27 00:01:00;;;;;;;3.10;2.05;;;17.70;90.50;;;;;;5101010;28;20043;-82
2023/08/27 00:03:26;;;;;;;3.08;2.17;;;17.80;90.40;;;;;;5118237;28;20042;-82
2023/08/27 00:05:52;;;;;;;3.25;2.13;;;17.90;90.40;;;;;;5101535;28;20024;-81
2023/08/27 00:08:17;;;;;;;3.25;2.30;;;17.90;90.40;;;;;;5136411;28;20028;-83
2023/08/27 00:10:43;;;;;;;4.75;2.30;;;18.00;90.50;;;;;;5118500;28;20023;-82
2023/08/27 00:13:08;;;;;;;3.83;2.08;;;18.00;90.30;;;;;;5136259;28;20036;-82
2023/08/27 00:15:34;;;;;;;3.13;2.30;;;18.00;90.10;;;;;;5118332;28;20032;-82
2023/08/27 00:18:00;;;;;;;2.50;2.17;;;18.00;90.00;;;;;;5101154;28;20032;-83
2023/08/27 00:20:26;;;;;;;2.92;2.40;;;18.00;90.10;;;;;;5118234;28;20024;-82
2023/08/27 00:22:51;;;;;;;2.78;2.00;;;18.00;90.00;;;;;;5101137;28;20024;-82
2023/08/27 00:25:17;;;;;;;2.83;2.42;;;17.80;89.90;;;;;;5101075;28;20106;-82
2023/08/27 00:27:43;;;;;;;2.72;2.10;;;17.70;90.00;;;;;;5135834;28;20047;-82
2023/08/27 00:30:09;;;;;;;2.33;2.10;;;17.50;90.10;;;;;;5084369;28;20032;-82
2023/08/27 00:32:35;;;;;;;4.30;2.40;;;17.40;90.30;;;;;;5117953;28;20031;-82
2023/08/27 00:35:03;;;;;;;3.33;2.20;;;17.40;90.50;;;;;;5117815;28;20031;-82
2023/08/27 00:37:29;;;;;;;3.63;2.00;;;17.40;90.60;;;;;;5117525;28;20060;-81
2023/08/27 00:39:54;;;;;;;2.72;2.08;;;17.20;90.90;;;;;;5117742;28;20024;-82
2023/08/27 00:42:20;;;;;;;3.20;1.75;;;17.20;91.20;;;;;;5117786;28;20028;-82
2023/08/27 00:44:46;;;;;;;4.10;2.03;;;17.10;91.60;;;;;;5100793;28;20116;-83
2023/08/27 00:47:12;;;;;;;3.55;1.90;;;17.10;91.80;;;;;;5117743;28;20099;-82
2023/08/27 00:49:39;;;;;;;3.53;2.00;;;17.10;92.20;;;;;;5117694;28;20028;-83
2023/08/27 00:52:06;;;;;;;4.05;2.08;;;17.10;92.40;;;;;;5135532;28;20020;-83
2023/08/27 00:54:32;;;;;;;5.05;1.80;;;17.10;92.30;;;;;;5083936;28;20031;-82
2023/08/27 00:56:58;;;;;;;2.38;1.70;;;17.00;92.40;;;;;;5117527;28;20083;-82
2023/08/27 00:59:23;;;;;;;2.97;1.65;;;17.00;92.40;;;;;;5117374;28;20030;-81
2023/08/27 01:01:51;;;;;;;2.90;1.23;;;17.00;92.50;;;;;;5083816;28;20047;-83
2023/08/27 01:04:16;;;;;;;2.25;1.52;;;17.00;92.50;;;;;;5117303;28;20016;-83
2023/08/27 01:06:43;;;;;;;2.40;1.25;;;17.00;92.30;;;;;;5117425;28;20023;-83
2023/08/27 01:09:35;;;;;;;2.47;1.35;;;17.10;92.20;;;;;;5117681;28;20091;-83
2023/08/27 01:12:14;;;;;;;3.63;1.38;;;17.20;92.10;;;;;;5135157;28;20026;-83
2023/08/27 01:14:43;;;;;;;2.38;1.20;;;17.30;92.20;;;;;;5117059;28;20429;-83
2023/08/27 01:17:13;;;;;;;2.38;1.45;;;17.40;92.20;;;;;;5135248;28;20026;-83
2023/08/27 01:19:39;;;;;;;1.95;1.30;;;17.40;92.10;;;;;;5116935;28;20004;-83
2023/08/27 01:22:04;;;;;;;2.50;1.50;;;17.50;92.10;;;;;;5116949;28;20050;-83
2023/08/27 01:24:30;;;;;;;2.30;1.38;;;17.60;92.10;;;;;;5116880;28;20024;-83
2023/08/27 01:27:03;;;;;;;2.15;1.42;;;17.60;91.80;;;;;;5116716;28;20024;-84
2023/08/27 01:29:43;;;;;;;3.22;1.23;;;17.60;91.60;;;;;;5134803;28;20031;-84
2023/08/27 01:32:38;;;;;;;2.35;1.40;;;17.50;91.50;;;;;;5134731;28;20034;-84
2023/08/27 01:35:04;;;;;;;2.22;1.40;;;17.50;91.40;;;;;;5116817;28;20097;-83
2023/08/27 01:37:31;;;;;;;1.65;1.27;;;17.50;91.40;;;;;;5099665;28;20027;-82
2023/08/27 01:39:59;;;;;;;3.55;1.17;;;17.50;91.40;;;;;;5083084;28;20026;-83
2023/08/27 01:42:24;;;;;;;4.28;1.52;;;17.40;91.30;;;;;;5134392;28;20027;-83
2023/08/27 01:44:50;;;;;;;2.20;1.27;;;17.40;91.50;;;;;;5134555;28;20091;-84
2023/08/27 01:47:16;;;;;;;1.70;1.30;;;17.30;91.60;;;;;;5099902;28;20035;-83
2023/08/27 01:49:42;;;;;;;3.58;1.30;;;17.30;91.60;;;;;;5099714;28;20032;-83
2023/08/27 01:52:07;;;;;;;1.75;1.40;;;17.30;91.60;;;;;;5116502;28;20028;-83
2023/08/27 01:54:33;;;;;;;2.95;1.63;;;17.30;91.60;;;;;;5099698;28;20087;-83
2023/08/27 01:56:59;;;;;;;1.90;1.33;;;17.20;91.60;;;;;;5099604;28;20051;-84
2023/08/27 01:59:24;;;;;;;1.92;1.30;;;17.10;91.80;;;;;;5116531;28;20500;-82
2023/08/27 02:01:51;;;;;;;2.22;1.40;;;17.20;91.90;;;;;;5116389;28;20042;-81
2023/08/27 02:04:17;;;;;;;3.47;1.50;;;17.20;91.80;;;;;;5099507;28;20031;-83
2023/08/27 02:06:42;;;;;;;1.95;1.50;;;17.20;91.60;;;;;;5099395;28;20027;-83
2023/08/27 02:09:08;;;;;;;3.17;1.73;;;17.20;91.50;;;;;;5082797;28;20050;-82
2023/08/27 02:11:33;;;;;;;3.33;1.70;;;17.20;91.60;;;;;;5116189;28;20035;-82
2023/08/27 02:13:59;;;;;;;3.33;1.63;;;17.10;91.60;;;;;;5116471;28;20032;-84
2023/08/27 02:16:25;;;;;;;2.10;1.60;;;17.10;91.70;;;;;;5116499;28;20027;-84
2023/08/27 02:18:50;;;;;;;2.00;1.30;;;17.10;91.70;;;;;;5099229;28;20538;-83
2023/08/27 02:21:16;;;;;;;1.70;1.48;;;17.20;91.70;;;;;;5099321;28;20027;-83
2023/08/27 02:23:42;;;;;;;3.25;1.20;;;17.20;91.60;;;;;;5115969;28;20041;-83
2023/08/27 02:26:08;;;;;;;2.65;1.58;;;17.10;91.50;;;;;;5102720;28;20024;-83
2023/08/27 02:28:33;;;;;;;2.50;1.40;;;17.00;91.50;;;;;;5138463;28;20024;-83
2023/08/27 02:30:59;;;;;;;2.10;1.50;;;17.00;91.70;;;;;;5120352;28;20024;-83
2023/08/27 02:33:25;;;;;;;3.00;1.25;;;17.00;91.70;;;;;;5138285;28;20038;-83
2023/08/27 02:35:51;;;;;;;1.92;1.13;;;16.90;91.50;;;;;;5138437;28;20031;-83
2023/08/27 02:38:17;;;;;;;2.70;1.42;;;16.90;92.00;;;;;;5120052;28;20073;-82
2023/08/27 02:40:43;;;;;;;2.40;1.67;;;16.90;92.00;;;;;;5120265;28;20043;-83
2023/08/27 02:43:09;;;;;;;2.90;1.48;;;16.80;92.10;;;;;;5103315;28;20038;-83
2023/08/27 02:45:34;;;;;;;4.90;1.60;;;16.70;92.20;;;;;;5103076;28;20035;-83
2023/08/27 02:48:00;;;;;;;2.90;1.80;;;16.60;92.50;;;;;;5102957;28;20043;-82
2023/08/27 02:50:26;;;;;;;3.42;1.70;;;16.60;92.70;;;;;;5086410;28;20031;-82
2023/08/27 02:52:51;;;;;;;2.33;1.80;;;16.60;92.60;;;;;;5120069;28;20027;-82
2023/08/27 02:55:17;;;;;;;2.90;2.10;;;16.60;92.70;;;;;;5103178;28;20470;-83
2023/08/27 02:57:43;;;;;;;4.38;1.90;;;16.70;92.70;;;;;;5085952;28;20036;-83
2023/08/27 03:00:09;;;;;;;3.20;1.90;;;16.60;92.80;;;;;;5119716;28;20037;-83
2023/08/27 03:02:34;;;;;;;3.75;1.70;;;16.70;92.90;;;;;;5086062;28;20027;-83
2023/08/27 03:05:04;;;;;;;4.28;2.00;;;16.60;92.80;;;;;;5085898;28;20024;-83
2023/08/27 03:07:29;;;;;;;2.72;1.88;;;16.60;93.00;;;;;;5102439;28;20024;-83
2023/08/27 03:09:55;;;;;;;5.45;1.73;;;16.60;92.90;;;;;;5085918;28;20065;-83
2023/08/27 03:12:21;;;;;;;3.10;1.80;;;16.50;92.90;;;;;;5102759;28;20098;-83
2023/08/27 03:14:46;;;;;;;5.00;2.38;;;16.50;93.00;;;;;;5102665;28;20432;-82
2023/08/27 03:17:12;;;;;;;5.53;2.20;;;16.50;93.30;;;;;;5102632;28;20032;-82
2023/08/27 03:19:37;;;;;;;2.88;1.98;;;16.50;93.40;;;;;;5102528;28;20033;-82
2023/08/27 03:22:03;;;;;;;2.22;1.63;;;16.30;93.90;;;;;;5119298;28;20023;-82
2023/08/27 03:24:29;;;;;;;5.53;1.67;;;16.20;94.10;;;;;;5119532;28;20027;-82
2023/08/27 03:26:54;;;;;;;4.00;1.63;;;16.20;94.40;;;;;;5137265;28;20031;-80
2023/08/27 03:29:21;;;;;;;5.57;1.70;;;16.20;94.60;;;;;;5119385;28;20028;-84
2023/08/27 03:31:47;;;;;;;2.90;1.40;;;16.30;94.50;;;;;;5119771;28;20027;-83
2023/08/27 03:34:13;;;;;;;4.72;1.55;;;16.40;94.50;;;;;;5102171;28;20382;-83
2023/08/27 03:36:39;;;;;;;2.92;1.15;;;16.40;94.30;;;;;;5135766;28;20043;-82
2023/08/27 03:39:05;;;;;;;5.78;1.63;;;16.50;94.20;;;;;;5102040;28;20044;-84
2023/08/27 03:41:31;;;;;;;2.47;1.20;;;16.50;94.00;;;;;;5102159;28;20016;-83
2023/08/27 03:43:57;;;;;;;1.42;1.10;;;16.50;94.00;;;;;;5102007;28;20027;-83
2023/08/27 03:46:23;;;;;;;3.40;1.30;;;16.50;94.10;;;;;;5102104;28;20032;-83
2023/08/27 03:48:48;;;;;;;1.92;1.30;;;16.40;94.30;;;;;;5085223;28;20038;-83
2023/08/27 03:51:14;;;;;;;2.97;1.10;;;16.40;94.40;;;;;;5118729;28;20073;-83
2023/08/27 03:53:40;;;;;;;2.40;1.10;;;16.30;94.50;;;;;;5102060;28;20031;-83
2023/08/27 03:56:06;;;;;;;2.30;1.15;;;16.30;94.80;;;;;;5101818;28;20038;-83
2023/08/27 03:58:32;;;;;;;2.10;1.30;;;16.10;94.90;;;;;;5101625;28;20020;-82
2023/08/27 04:00:58;;;;;;;3.45;1.48;;;16.10;95.10;;;;;;5118553;28;20027;-83
2023/08/27 04:03:24;;;;;;;5.82;1.35;;;16.00;95.30;;;;;;5136521;28;20031;-82
2023/08/27 04:05:50;;;;;;;3.80;1.30;;;16.00;95.40;;;;;;5118480;28;20024;-83
2023/08/27 04:08:16;;;;;;;2.13;1.27;;;15.90;95.60;;;;;;5084757;28;20039;-81
2023/08/27 04:10:52;;;;;;;2.90;1.42;;;15.90;95.70;;;;;;5118641;28;20028;-81
2023/08/27 04:13:18;;;;;;;2.72;1.33;;;15.90;95.60;;;;;;5118460;28;20095;-80
2023/08/27 04:15:45;;;;;;;2.30;1.13;;;16.00;95.60;;;;;;5118296;28;20098;-82
2023/08/27 04:18:10;;;;;;;4.20;1.25;;;15.90;95.80;;;;;;5136227;28;20028;-82
2023/08/27 04:20:36;;;;;;;2.95;1.13;;;16.00;95.70;;;;;;5101589;28;20401;-82
2023/08/27 04:23:02;;;;;;;2.13;1.30;;;16.10;95.80;;;;;;5101271;28;20030;-82
2023/08/27 04:25:29;;;;;;;3.72;1.33;;;16.20;95.70;;;;;;5101271;28;20024;-83
2023/08/27 04:27:56;;;;;;;2.08;1.40;;;16.20;95.50;;;;;;5136155;28;20398;-83
2023/08/27 04:30:22;;;;;;;1.58;1.10;;;16.30;95.50;;;;;;5101564;28;20071;-83
2023/08/27 04:32:47;;;;;;;2.75;1.48;;;16.30;95.30;;;;;;5118088;28;20020;-84
2023/08/27 04:35:14;;;;;;;5.82;1.65;;;16.30;95.10;;;;;;5100984;28;20023;-83
2023/08/27 04:37:40;;;;;;;1.40;1.10;;;16.30;95.20;;;;;;5117905;28;20035;-83
2023/08/27 04:40:06;;;;;;;3.92;1.20;;;16.30;95.40;;;;;;5136054;28;20045;-83
2023/08/27 04:42:32;;;;;;;4.60;1.52;;;16.30;95.40;;;;;;5118139;28;20051;-83
2023/08/27 04:44:58;;;;;;;1.77;1.30;;;16.40;95.40;;;;;;5118072;28;20039;-83
2023/08/27 04:47:23;;;;;;;1.80;1.25;;;16.40;95.30;;;;;;5117326;28;20023;-83
2023/08/27 04:49:49;;;;;;;3.38;1.55;;;16.50;95.30;;;;;;5117694;28;20130;-83
2023/08/27 04:52:15;;;;;;;2.80;1.50;;;16.50;95.10;;;;;;5117584;28;20023;-83
2023/08/27 04:54:41;;;;;;;2.72;1.33;;;16.40;94.90;;;;;;5135607;28;20030;-82
2023/08/27 04:57:06;;;;;;;3.72;1.50;;;16.40;95.00;;;;;;5100684;28;20034;-81
2023/08/27 04:59:32;;;;;;;2.55;1.58;;;16.40;95.00;;;;;;5117403;28;20020;-83
2023/08/27 05:01:59;;;;;;;3.40;1.70;;;16.40;95.00;;;;;;5100452;28;20023;-82
2023/08/27 05:04:28;;;;;;;4.88;1.73;;;16.40;95.00;;;;;;5135409;28;20020;-83
2023/08/27 05:06:54;;;;;;;4.93;1.58;;;16.30;95.10;;;;;;5135539;28;20043;-82
2023/08/27 05:09:19;;;;;;;3.10;1.55;;;16.20;95.20;;;;;;5117304;28;20038;-83
2023/08/27 05:11:45;;;;;;;4.15;1.52;;;16.20;95.30;;;;;;5100373;28;20051;-83
2023/08/27 05:14:11;;;;;;;3.50;1.60;;;16.20;95.40;;;;;;5117175;28;20034;-83
2023/08/27 05:16:36;;;;;;;3.63;1.65;;;16.20;95.30;;;;;;5117118;28;20042;-83
2023/08/27 05:19:02;;;;;;;2.92;1.50;;;16.20;95.40;;;;;;5117079;28;20027;-83
2023/08/27 05:21:28;;;;;;;3.95;1.65;;;16.20;95.50;;;;;;5100109;28;20027;-83
2023/08/27 05:23:53;;;;;;;2.38;1.45;;;16.20;95.40;;;;;;5100206;28;20486;-83
2023/08/27 05:26:19;;;;;;;6.38;2.15;;;16.20;95.50;;;;;;5100050;28;20039;-83
2023/08/27 05:28:44;;;;;;;4.22;1.67;;;16.20;95.60;;;;;;5100085;28;20068;-83
2023/08/27 05:31:10;;;;;;;4.40;1.70;;;16.20;95.50;;;;;;5100093;28;20077;-82
2023/08/27 05:33:36;;;;;;;2.83;1.73;;;16.20;95.60;;;;;;5134743;28;20087;-83
2023/08/27 05:36:01;;;;;;;1.95;1.48;;;16.30;95.60;;;;;;5083210;28;20512;-82
2023/08/27 05:38:27;;;;;;;3.72;1.70;;;16.30;95.60;;;;;;5134385;28;20047;-82
2023/08/27 05:40:53;;;;;;;2.83;2.00;;;16.20;95.50;;;;;;5116770;28;20047;-84
2023/08/27 05:43:18;;;;;;;3.03;1.77;;;16.20;95.80;;;;;;5099962;28;20031;-83
2023/08/27 05:45:44;;;;;;;3.15;1.92;;;16.20;96.00;;;;;;5099968;28;20031;-83
2023/08/27 05:48:09;;;;;;;2.42;1.55;;;16.20;96.00;;;;;;5134789;28;20032;-82
2023/08/27 05:50:36;;;;;;;2.83;1.70;;;16.10;96.10;;;;;;5082821;28;20028;-81
2023/08/27 05:53:05;;;;;;;4.18;2.00;;;16.20;96.20;;;;;;5116381;28;20016;-81
2023/08/27 05:55:31;;;;;;;3.33;1.85;;;16.10;96.20;;;;;;5134320;28;20048;-82
2023/08/27 05:57:56;;;;;;;3.63;1.92;;;16.10;96.10;;;;;;5099461;28;20028;-81
2023/08/27 06:00:22;;;;;;;3.08;1.90;;;16.10;96.10;;;;;;5081874;28;20032;-82
2023/08/27 06:02:48;;;;;;;4.07;1.90;;;16.10;96.10;;;;;;5116343;28;20095;-82
2023/08/27 06:05:13;;;;;;;3.95;2.00;;;16.10;96.20;;;;;;5116447;28;20062;-83
2023/08/27 06:07:39;;;;;;;4.53;1.83;;;16.10;96.20;;;;;;5134285;28;20027;-82
2023/08/27 06:10:05;;;;;;;3.63;2.10;;;16.10;96.30;;;;;;5116490;28;20083;-83
2023/08/27 06:12:31;;;;;;;4.15;1.80;;;16.10;96.30;;;;;;5116389;28;20065;-83
2023/08/27 06:14:57;;;;;;;2.88;1.90;;;16.10;96.30;;;;;;5116282;28;20031;-83
2023/08/27 06:17:23;;;;;;;2.95;1.65;;;16.10;96.40;;;;;;5116169;28;20103;-82
2023/08/27 06:19:48;;;;;;;3.42;2.10;;;16.10;96.50;;;;;;5116213;28;20035;-83
2023/08/27 06:22:14;;;;;;;3.53;2.17;;;16.10;96.50;;;;;;5099223;28;20035;-81
2023/08/27 06:24:39;;;;;;;3.50;2.17;;;16.20;96.60;;;;;;5099081;28;20024;-82
2023/08/27 06:27:05;;;;;;;5.07;2.35;;;16.20;96.60;;;;;;5082573;28;20058;-81
2023/08/27 06:29:31;;;;;;;4.20;2.95;;;16.20;96.70;;;;;;5099146;28;20367;-80
2023/08/27 06:31:56;;;;;;;4.53;2.92;;;16.20;96.80;;;;;;5099332;28;20020;-81
2023/08/27 06:34:22;;;;;;;6.47;3.10;;;16.30;96.70;;;;;;5115907;28;20036;-80
2023/08/27 06:36:48;;;;;;;7.18;2.97;;;16.30;96.70;;;;;;5099141;28;20028;-81
2023/08/27 06:39:13;;;;;;;4.47;2.80;;;16.30;96.70;;;;;;5133710;28;20056;-83
2023/08/27 06:41:39;;;;;;;5.10;3.30;;;16.20;96.80;;;;;;5115971;28;20051;-82
2023/08/27 06:44:05;;;;;;;6.00;3.38;;;16.20;97.10;;;;;;5082219;28;20028;-83
2023/08/27 06:46:30;;;;;;;5.97;3.78;;;16.30;97.00;;;;;;5099493;28;20039;-87
2023/08/27 06:48:56;;;;;;;4.95;2.97;;;16.30;97.10;;;;;;5082503;28;20028;-82
2023/08/27 06:51:23;;;;;;;7.90;3.47;;;16.30;97.00;;;;;;5099092;28;20126;-85
2023/08/27 06:53:48;;;;;;;5.38;3.45;;;16.40;97.10;;;;;;5115891;28;20031;-82
2023/08/27 06:56:14;;;;;;;6.93;3.42;;;16.40;97.10;;;;;;5098933;28;20039;-80
2023/08/27 06:58:39;;;;;;;15.23;3.95;;;16.40;97.10;;;;;;5082079;28;20036;-85
2023/08/27 07:01:05;;;;;;;5.70;3.55;;;16.50;96.90;;;;;;5099512;28;20016;-85
2023/08/27 07:03:31;;;;;;;5.60;3.50;;;16.50;97.00;;;;;;5099229;28;20016;-79
2023/08/27 07:05:57;;;;;;;5.63;3.55;;;16.50;97.00;;;;;;5115868;28;20032;-80
2023/08/27 07:08:23;;;;;;;6.70;3.55;;;16.50;97.20;;;;;;5099039;28;20024;-82
2023/08/27 07:10:49;;;;;;;5.47;3.63;;;16.60;97.40;;;;;;5099792;28;20023;-79
2023/08/27 07:13:15;;;;;;;5.03;3.55;;;16.60;97.20;;;;;;5102617;28;20039;-79
2023/08/27 07:15:40;;;;;;;7.00;4.38;;;16.60;97.20;;;;;;5137594;28;20094;-80
2023/08/27 07:18:07;;;;;;;6.88;4.18;;;16.60;97.00;;;;;;5119681;28;20052;-80
2023/08/27 07:20:34;;;;;;;9.10;4.00;;;16.60;97.30;;;;;;5119370;28;20053;-79
2023/08/27 07:22:59;;;;;;;7.55;4.18;;;16.70;97.40;;;;;;5119427;28;20032;-82
2023/08/27 07:25:25;;;;;;;7.22;3.60;;;16.80;97.50;;;;;;5119555;28;20034;-81
2023/08/27 07:27:51;;;;;;;7.38;4.05;;;16.80;97.50;;;;;;5102153;28;20039;-81
2023/08/27 07:30:16;;;;;;;6.55;3.80;;;16.90;97.50;;;;;;5119162;28;20055;-81
2023/08/27 07:32:42;;;;;;;7.95;3.95;;;16.90;97.50;;;;;;5119246;28;20019;-81
2023/08/27 07:35:08;;;;;;;5.68;3.63;;;16.90;97.30;;;;;;5102113;28;20111;-82
2023/08/27 07:37:33;;;;;;;7.75;3.40;;;17.00;97.40;;;;;;5102125;28;20028;-81
2023/08/27 07:39:59;;;;;;;7.90;4.13;;;17.00;97.40;;;;;;5118491;28;20048;-84
2023/08/27 07:42:25;;;;;;;5.63;3.60;;;17.10;97.40;;;;;;5085290;28;20032;-80
2023/08/27 07:44:50;;;;;;;9.32;4.40;;;17.10;97.50;;;;;;5085009;28;20494;-81
2023/08/27 07:47:16;;;;;;;5.85;3.90;;;17.20;97.00;;;;;;5118763;28;20023;-78
2023/08/27 07:49:42;;;;;;;4.72;3.60;;;17.30;97.30;;;;;;5118789;28;20068;-79
2023/08/27 07:52:08;;;;;;;7.18;3.75;;;17.30;96.60;;;;;;5101961;28;20490;-86
2023/08/27 07:54:33;;;;;;;6.75;3.60;;;17.30;96.60;;;;;;5102433;28;20436;-85
2023/08/27 07:56:59;;;;;;;7.30;3.22;;;17.50;97.10;;;;;;5085191;28;20032;-84
2023/08/27 07:59:25;;;;;;;4.95;3.42;;;17.50;97.10;;;;;;5118727;28;20032;-85
2023/08/27 08:01:51;;;;;;;6.18;3.25;;;17.50;96.70;;;;;;5085267;28;20024;-85
2023/08/27 08:04:18;;;;;;;8.40;3.42;;;17.40;95.80;;;;;;5119289;28;20030;-87
2023/08/27 08:06:43;;;;;;;8.82;3.60;;;17.40;96.30;;;;;;5137070;28;20035;-85
2023/08/27 08:09:09;;;;;;;5.13;3.80;;;17.40;96.80;;;;;;5101794;28;20039;-86
2023/08/27 08:11:35;;;;;;;7.93;3.80;;;17.50;96.70;;;;;;5101878;28;20027;-85
2023/08/27 08:14:00;;;;;;;7.95;4.05;;;17.50;96.20;;;;;;5118802;28;20165;-85
2023/08/27 08:16:26;;;;;;;7.13;4.10;;;17.50;96.20;;;;;;5118747;28;20099;-85
2023/08/27 08:18:51;;;;;;;9.63;4.20;;;17.60;96.50;;;;;;5101622;28;20050;-84
2023/08/27 08:21:19;;;;;;;7.55;4.50;;;17.60;95.90;;;;;;5101549;28;20031;-83
2023/08/27 08:23:45;;;;;;;8.57;4.80;;;17.80;96.10;;;;;;5100974;28;20049;-83
2023/08/27 08:26:11;;;;;;;7.57;4.93;;;17.80;95.60;;;;;;5118209;28;20019;-84
2023/08/27 08:28:36;;;;;;;8.73;5.07;;;17.80;95.90;;;;;;5101308;28;20031;-84
2023/08/27 08:31:03;;;;;;;7.10;4.75;;;18.00;96.20;;;;;;5101253;28;20036;-85
2023/08/27 08:33:28;;;;;;;8.07;5.00;;;18.10;96.00;;;;;;5101558;28;20474;-85
2023/08/27 08:35:54;;;;;;;9.00;4.70;;;18.20;96.10;;;;;;5101365;28;20020;-84
2023/08/27 08:38:19;;;;;;;10.73;4.45;;;18.20;94.90;;;;;;5100889;28;20466;-84
2023/08/27 08:40:49;;;;;;;9.32;3.92;;;18.20;94.60;;;;;;5101106;28;20020;-82
2023/08/27 08:43:28;;;;;;;7.90;3.88;;;18.20;94.50;;;;;;5117831;28;20083;-84
2023/08/27 08:46:04;;;;;;;8.55;4.07;;;18.30;94.70;;;;;;5117887;28;20016;-80
2023/08/27 08:48:36;;;;;;;8.35;3.97;;;18.40;94.70;;;;;;5117739;28;20103;-83
2023/08/27 08:51:03;;;;;;;6.25;3.30;;;18.40;94.50;;;;;;5117767;28;20051;-82
2023/08/27 08:53:32;;;;;;;4.75;3.38;;;18.50;93.70;;;;;;5117526;28;20024;-84
2023/08/27 08:56:02;;;;;;;4.95;3.22;;;18.50;93.80;;;;;;5117843;28;20046;-85
2023/08/27 08:58:31;;;;;;;5.22;2.65;;;18.50;93.30;;;;;;5118180;28;20031;-83
2023/08/27 09:00:57;;;;;;;7.57;3.20;;;18.60;93.90;;;;;;5117503;28;20016;-84
2023/08/27 09:03:24;;;;;;;5.85;3.13;;;18.70;93.70;;;;;;5083945;28;20031;-84
2023/08/27 09:05:51;;;;;;;5.75;3.15;;;18.60;93.40;;;;;;5117183;28;20053;-84
2023/08/27 09:08:19;;;;;;;4.65;2.15;;;18.60;93.00;;;;;;5117371;28;20063;-84
2023/08/27 09:10:47;;;;;;;4.35;2.63;;;18.50;91.90;;;;;;5135557;28;20043;-85
2023/08/27 09:13:18;;;;;;;4.45;2.30;;;18.40;92.30;;;;;;5100704;28;20047;-84
2023/08/27 09:15:43;;;;;;;4.90;2.17;;;18.40;92.60;;;;;;5135300;28;20073;-84
2023/08/27 09:18:09;;;;;;;3.55;2.10;;;18.40;91.90;;;;;;5083562;28;20032;-86
2023/08/27 09:20:36;;;;;;;4.78;1.88;;;18.50;92.30;;;;;;5117427;28;20027;-86
2023/08/27 09:23:02;;;;;;;4.85;2.00;;;18.60;91.80;;;;;;5117245;28;20045;-84
2023/08/27 09:25:27;;;;;;;6.57;2.50;;;18.60;91.90;;;;;;5100331;28;20016;-84
2023/08/27 09:27:53;;;;;;;4.97;2.40;;;18.60;91.00;;;;;;5117002;28;20028;-85
2023/08/27 09:30:20;;;;;;;4.80;2.53;;;18.70;91.90;;;;;;5117068;28;20015;-86
2023/08/27 09:32:46;;;;;;;4.10;2.00;;;18.70;91.40;;;;;;5117251;28;20039;-85
2023/08/27 09:35:11;;;;;;;2.70;1.80;;;18.60;89.70;;;;;;5117245;28;20015;-86
2023/08/27 09:37:39;;;;;;;4.57;1.85;;;18.70;90.00;;;;;;5116992;28;20042;-85
2023/08/27 09:40:06;;;;;;;2.40;1.67;;;18.70;88.10;;;;;;5116564;28;20486;-83
2023/08/27 09:42:32;;;;;;;4.85;1.67;;;18.70;90.40;;;;;;5100109;28;20049;-84
2023/08/27 09:44:58;;;;;;;3.05;1.35;;;18.80;89.80;;;;;;5116673;28;20087;-84
2023/08/27 09:47:32;;;;;;;3.67;1.88;;;19.00;88.90;;;;;;5099705;28;20031;-84
2023/08/27 09:49:59;;;;;;;2.55;1.75;;;19.00;88.40;;;;;;5099685;28;20035;-84
2023/08/27 09:52:26;;;;;;;3.40;1.70;;;19.10;88.60;;;;;;5116947;28;20027;-81
2023/08/27 09:54:52;;;;;;;2.78;1.63;;;19.20;88.80;;;;;;5116305;28;20047;-80
2023/08/27 09:57:19;;;;;;;2.60;1.48;;;19.20;88.30;;;;;;5134166;28;20023;-83
2023/08/27 09:59:46;;;;;;;3.95;1.80;;;19.40;85.40;;;;;;5116398;28;20035;-79
2023/08/27 10:02:16;;;;;;;4.13;1.52;;;19.40;86.30;;;;;;5134283;28;20020;-80
2023/08/27 10:04:54;;;;;;;4.72;1.80;;;19.40;84.90;;;;;;5116397;28;20046;-81
2023/08/27 10:07:20;;;;;;;3.35;1.60;;;19.40;86.90;;;;;;5134224;28;20027;-80
2023/08/27 10:09:52;;;;;;;2.83;1.60;;;19.60;86.80;;;;;;5082652;28;20027;-80
2023/08/27 10:12:19;;;;;;;4.68;1.77;;;19.60;85.20;;;;;;5116289;28;20063;-81
2023/08/27 10:14:46;;;;;;;4.00;1.40;;;19.70;85.80;;;;;;5116212;28;20062;-79
2023/08/27 10:17:13;;;;;;;3.40;1.25;;;19.80;85.40;;;;;;5116083;28;20113;-82
2023/08/27 10:19:39;;;;;;;2.50;1.45;;;19.90;84.20;;;;;;5134034;28;20027;-81
2023/08/27 10:22:05;;;;;;;2.22;1.40;;;20.00;85.10;;;;;;5099192;28;20024;-81
2023/08/27 10:24:32;;;;;;;3.80;1.77;;;20.00;84.60;;;;;;5116029;28;20123;-80
2023/08/27 10:26:59;;;;;;;3.20;1.40;;;20.00;83.70;;;;;;5134069;28;20024;-82
2023/08/27 10:29:26;;;;;;;3.55;1.70;;;20.00;82.90;;;;;;5134091;28;20028;-83
2023/08/27 10:31:53;;;;;;;3.55;1.40;;;20.10;84.00;;;;;;5134056;28;20028;-82
2023/08/27 10:34:19;;;;;;;2.90;1.40;;;20.20;85.30;;;;;;5116023;28;20042;-84
2023/08/27 10:36:46;;;;;;;2.03;1.17;;;20.30;85.30;;;;;;5099295;28;20049;-80
2023/08/27 10:39:14;;;;;;;3.80;1.80;;;20.30;81.70;;;;;;5115827;28;20028;-81
2023/08/27 10:41:40;;;;;;;2.90;1.33;;;20.30;81.00;;;;;;5116229;28;20046;-84
2023/08/27 10:44:09;;;;;;;4.53;1.40;;;20.30;80.10;;;;;;5116090;28;20028;-82
2023/08/27 10:46:35;;;;;;;4.43;1.38;;;20.20;80.10;;;;;;5118166;28;20028;-83
2023/08/27 10:49:15;;;;;;;2.05;1.30;;;20.00;79.90;;;;;;5137933;28;20036;-82
2023/08/27 10:51:41;;;;;;;3.97;1.30;;;19.80;78.60;;;;;;5103073;28;20419;-83
2023/08/27 10:54:07;;;;;;;2.70;1.35;;;19.70;80.40;;;;;;5120359;28;20091;-84
2023/08/27 10:56:32;;;;;;;4.03;1.05;;;19.60;80.90;;;;;;5086169;28;20050;-83
2023/08/27 10:59:11;;;;;;;3.95;1.65;;;19.50;81.60;;;;;;5119652;28;20050;-82
2023/08/27 11:01:58;;;;;;;3.75;1.48;;;19.40;82.70;;;;;;5137969;28;20080;-82
2023/08/27 11:04:34;;;;;;;3.33;1.80;;;19.40;83.20;;;;;;5119423;28;20092;-83
2023/08/27 11:07:08;;;;;;;4.15;1.63;;;19.40;84.90;;;;;;5102866;28;20028;-83
2023/08/27 11:09:43;;;;;;;4.57;1.70;;;19.50;84.90;;;;;;5137590;28;20016;-83
2023/08/27 11:12:33;;;;;;;3.10;1.85;;;19.40;85.50;;;;;;5119742;28;20030;-84
2023/08/27 11:15:25;;;;;;;3.28;1.40;;;19.50;84.80;;;;;;5137901;28;20028;-84
2023/08/27 11:17:51;;;;;;;2.75;1.35;;;19.50;85.90;;;;;;5119387;28;20024;-83
2023/08/27 11:20:25;;;;;;;5.88;1.40;;;19.70;85.70;;;;;;5119330;28;20053;-83
2023/08/27 11:23:00;;;;;;;2.88;1.50;;;20.00;85.30;;;;;;5119355;28;20100;-83
2023/08/27 11:25:28;;;;;;;5.18;2.05;;;20.10;84.40;;;;;;5119323;28;20023;-83
2023/08/27 11:27:55;;;;;;;2.75;1.50;;;20.30;85.50;;;;;;5137442;28;20019;-83
2023/08/27 11:30:24;;;;;;;2.28;1.15;;;20.30;84.20;;;;;;5119689;28;20106;-84
2023/08/27 11:32:50;;;;;;;5.88;1.40;;;20.30;82.90;;;;;;5137271;28;20047;-84
2023/08/27 11:35:22;;;;;;;4.50;1.10;;;20.40;83.60;;;;;;5102025;28;20020;-83
2023/08/27 11:37:47;;;;;;;2.88;1.10;;;20.40;81.10;;;;;;5118910;28;20038;-81
2023/08/27 11:40:19;;;;;;;2.28;1.60;;;20.30;80.30;;;;;;5118762;28;20048;-82
2023/08/27 11:42:52;;;;;;;2.10;1.10;;;20.30;81.60;;;;;;5119009;28;20012;-83
2023/08/27 11:45:29;;;;;;;2.67;1.27;;;20.40;81.40;;;;;;5102117;28;20031;-83
2023/08/27 11:47:55;;;;;;;0.68;0.43;;;20.40;80.10;;;;;;5118958;28;20016;-84
2023/08/27 11:50:21;;;;;;;1.13;0.60;;;20.40;79.00;;;;;;5119046;28;20057;-85
2023/08/27 11:52:47;;;;;;;2.45;0.50;;;20.30;78.90;;;;;;5137192;28;20031;-86
2023/08/27 11:55:13;;;;;;;1.27;0.70;;;20.20;79.60;;;;;;5119258;28;20036;-86
2023/08/27 11:57:39;;;;;;;0.40;0.40;;;20.00;79.10;;;;;;5118387;28;20042;-89
2023/08/27 12:00:11;;;;;;;0.55;0.50;;;19.80;79.00;;;;;;5119330;28;20059;-83
2023/08/27 12:02:38;;;;;;;1.33;0.40;;;19.60;80.80;;;;;;5118803;28;20020;-80
2023/08/27 12:05:06;;;;;;;2.13;0.50;;;19.40;82.40;;;;;;5118772;28;20024;-85
2023/08/27 12:07:34;;;;;;;1.20;0.57;;;19.30;83.20;;;;;;5102749;28;20023;-86
2023/08/27 12:10:05;;;;;;;1.48;0.60;;;19.10;82.80;;;;;;5119410;28;20188;-86
2023/08/27 12:12:32;;;;;;;0.70;0.40;;;18.70;83.60;;;;;;5136959;28;20028;-84
2023/08/27 12:15:00;;;;;;;1.85;1.08;;;18.30;84.40;;;;;;5136608;28;20069;-85
2023/08/27 12:17:33;;;;;;;1.10;0.60;;;18.00;86.20;;;;;;5118719;28;20047;-84
2023/08/27 12:19:58;;;;;;;1.42;0.90;;;17.90;87.40;;;;;;5102085;28;20031;-85
2023/08/27 12:22:24;;;;;;;2.45;0.98;;;17.80;86.90;;;;;;5101669;28;20024;-85
2023/08/27 12:24:49;;;;;;;2.47;1.00;;;17.80;87.60;;;;;;5118715;28;20118;-85
2023/08/27 12:27:17;;;;;;;1.63;1.10;;;17.80;87.90;;;;;;5102174;28;20018;-84
2023/08/27 12:29:45;;;;;;;2.10;1.25;;;17.80;88.50;;;;;;5101404;28;20028;-81
2023/08/27 12:32:12;;;;;;;2.60;1.35;;;17.70;88.80;;;;;;5135970;28;20036;-83
2023/08/27 12:34:39;;;;;;;2.75;1.30;;;17.60;88.80;;;;;;5135901;28;20114;-83
2023/08/27 12:37:05;;;;;;;1.35;1.20;;;17.60;89.10;;;;;;5101238;28;20024;-83
2023/08/27 12:39:31;;;;;;;2.50;1.55;;;17.50;89.80;;;;;;5100696;28;20044;-83
2023/08/27 12:41:58;;;;;;;2.33;2.00;;;17.40;89.60;;;;;;5117988;28;20023;-83
2023/08/27 12:44:24;;;;;;;4.22;1.73;;;17.40;90.00;;;;;;5135959;28;20020;-83
2023/08/27 12:46:50;;;;;;;2.28;1.30;;;17.30;90.10;;;;;;5084310;28;20103;-83